createdAt,value
2023-04-26T00:00:14.184Z,3.70
2023-04-26T00:03:04.348Z,3.80
2023-04-26T00:05:33.673Z,4.00
2023-04-26T00:08:04.661Z,3.70
2023-04-26T00:10:33.705Z,3.30
2023-04-26T00:13:02.840Z,4.00
2023-04-26T00:15:32.769Z,3.80
2023-04-26T00:18:02.243Z,3.40
2023-04-26T00:20:31.225Z,3.30
2023-04-26T00:23:00.043Z,3.60
2023-04-26T00:25:28.980Z,3.20
2023-04-26T00:27:57.914Z,2.70
2023-04-26T00:30:26.898Z,3.30
2023-04-26T00:32:56.019Z,3.50
2023-04-26T00:35:25.345Z,3.20
2023-04-26T00:37:54.335Z,3.30
2023-04-26T00:40:23.506Z,3.60
2023-04-26T00:43:02.675Z,2.90
2023-04-26T00:45:32.333Z,2.60
2023-04-26T00:48:03.234Z,2.90
2023-04-26T00:50:35.750Z,3.20
2023-04-26T00:53:14.941Z,3.40
2023-04-26T00:55:45.423Z,3.10
2023-04-26T00:58:14.658Z,3.50
2023-04-26T01:00:43.656Z,3.20
2023-04-26T01:03:16.070Z,3.20
2023-04-26T01:05:46.372Z,3.20
2023-04-26T01:08:17.979Z,3.10
2023-04-26T01:10:50.908Z,4.00
2023-04-26T01:13:20.010Z,3.50
2023-04-26T01:15:49.784Z,4.30
2023-04-26T01:18:18.918Z,3.70
2023-04-26T01:20:48.949Z,4.00
2023-04-26T01:23:18.005Z,3.70
2023-04-26T01:25:47.206Z,3.70
2023-04-26T01:28:16.417Z,3.80
2023-04-26T01:30:45.593Z,4.20
2023-04-26T01:33:16.617Z,3.50
2023-04-26T01:35:48.626Z,3.20
2023-04-26T01:38:18.549Z,3.90
2023-04-26T01:40:47.507Z,3.90
2023-04-26T01:43:23.991Z,3.90
2023-04-26T01:45:53.002Z,3.90
2023-04-26T01:48:22.064Z,3.80
2023-04-26T01:50:53.976Z,3.80
2023-04-26T01:53:25.200Z,3.60
2023-04-26T01:55:55.863Z,3.30
2023-04-26T01:58:24.852Z,3.70
2023-04-26T02:00:54.145Z,3.40
2023-04-26T02:03:23.476Z,3.90
2023-04-26T02:05:52.665Z,2.80
2023-04-26T02:08:24.445Z,3.10
2023-04-26T02:10:53.362Z,3.60
2023-04-26T02:13:22.662Z,3.00
2023-04-26T02:15:55.089Z,3.00
2023-04-26T02:18:25.197Z,2.60
2023-04-26T02:20:54.197Z,3.50
2023-04-26T02:23:25.950Z,3.30
2023-04-26T02:25:55.047Z,3.50
2023-04-26T02:28:24.248Z,3.70
2023-04-26T02:30:53.306Z,3.10
2023-04-26T02:33:23.434Z,3.10
2023-04-26T02:36:05.451Z,2.40
2023-04-26T02:38:42.611Z,2.50
2023-04-26T02:41:11.830Z,2.70
2023-04-26T02:43:41.183Z,2.50
2023-04-26T02:46:10.388Z,2.40
2023-04-26T02:48:39.484Z,2.50
2023-04-26T02:51:08.422Z,3.10
2023-04-26T02:53:37.652Z,3.10
2023-04-26T02:56:18.568Z,2.30
2023-04-26T02:58:53.727Z,2.80
2023-04-26T03:01:25.735Z,3.80
2023-04-26T03:03:55.531Z,3.20
2023-04-26T03:06:27.229Z,3.10
2023-04-26T03:09:02.836Z,3.20
2023-04-26T03:11:35.101Z,3.40
2023-04-26T03:14:04.081Z,3.60
2023-04-26T03:16:43.025Z,4.00
2023-04-26T03:19:12.254Z,2.30
2023-04-26T03:21:44.696Z,3.10
2023-04-26T03:24:13.566Z,3.30
2023-04-26T03:26:42.493Z,2.80
2023-04-26T03:29:13.045Z,2.20
2023-04-26T03:31:41.910Z,2.40
2023-04-26T03:34:11.168Z,2.50
2023-04-26T03:36:40.554Z,2.40
2023-04-26T03:39:10.409Z,2.30
2023-04-26T03:41:40.901Z,2.80
2023-04-26T03:44:12.843Z,2.50
2023-04-26T03:46:42.120Z,2.40
2023-04-26T03:49:11.084Z,2.20
2023-04-26T03:51:40.012Z,2.50
2023-04-26T03:54:09.199Z,2.00
2023-04-26T03:56:38.194Z,1.80
2023-04-26T03:59:07.324Z,2.10
2023-04-26T04:01:37.162Z,2.20
2023-04-26T04:04:06.416Z,2.60
2023-04-26T04:06:35.687Z,2.20
2023-04-26T04:09:08.255Z,2.40
2023-04-26T04:11:40.355Z,2.60
2023-04-26T04:14:09.462Z,1.70
2023-04-26T04:16:38.979Z,2.10
2023-04-26T04:19:08.055Z,1.90
2023-04-26T04:21:37.095Z,2.00
2023-04-26T04:24:06.526Z,2.30
2023-04-26T04:26:35.947Z,1.80
2023-04-26T04:29:09.575Z,2.70
2023-04-26T04:31:40.753Z,2.30
2023-04-26T04:34:10.456Z,2.30
2023-04-26T04:36:41.446Z,2.40
2023-04-26T04:39:16.650Z,2.40
2023-04-26T04:41:48.941Z,2.60
2023-04-26T04:44:21.201Z,2.70
2023-04-26T04:47:01.859Z,2.80
2023-04-26T04:49:33.665Z,2.50
2023-04-26T04:52:03.083Z,2.80
2023-04-26T04:54:32.443Z,3.30
2023-04-26T04:57:02.608Z,2.90
2023-04-26T04:59:37.811Z,3.10
2023-04-26T05:02:07.369Z,3.80
2023-04-26T05:04:39.570Z,3.90
2023-04-26T05:07:09.920Z,3.40
2023-04-26T05:09:42.524Z,3.80
2023-04-26T05:12:19.282Z,4.30
2023-04-26T05:14:50.912Z,4.10
2023-04-26T05:17:23.090Z,3.80
2023-04-26T05:19:52.649Z,3.60
2023-04-26T05:22:24.737Z,4.10
2023-04-26T05:24:53.888Z,4.00
2023-04-26T05:27:22.949Z,4.50
2023-04-26T05:29:55.430Z,4.20
2023-04-26T05:32:28.201Z,4.50
2023-04-26T05:35:01.831Z,4.40
2023-04-26T05:37:30.957Z,4.40
2023-04-26T05:40:00.312Z,4.00
2023-04-26T05:42:29.476Z,3.90
2023-04-26T05:45:00.328Z,4.50
2023-04-26T05:47:32.251Z,3.80
2023-04-26T05:50:04.185Z,4.00
2023-04-26T05:52:33.283Z,3.70
2023-04-26T05:55:06.791Z,3.90
2023-04-26T05:57:56.203Z,3.70
2023-04-26T06:00:26.844Z,3.10
2023-04-26T06:02:55.977Z,3.60
2023-04-26T06:05:25.183Z,3.10
2023-04-26T06:07:54.996Z,3.50
2023-04-26T06:10:27.196Z,3.60
2023-04-26T06:12:56.804Z,2.80
2023-04-26T06:15:25.968Z,3.40
2023-04-26T06:17:55.182Z,3.60
2023-04-26T06:20:24.215Z,3.50
2023-04-26T06:22:53.290Z,2.80
2023-04-26T06:25:22.527Z,2.60
2023-04-26T06:27:52.479Z,3.10
2023-04-26T06:30:21.748Z,2.50
2023-04-26T06:32:51.044Z,2.60
2023-04-26T06:35:20.188Z,2.90
2023-04-26T06:37:52.577Z,3.40
2023-04-26T06:40:22.596Z,3.10
2023-04-26T06:42:51.794Z,3.40
2023-04-26T06:45:20.870Z,3.50
2023-04-26T06:47:53.806Z,2.90
2023-04-26T06:50:22.930Z,2.80
2023-04-26T06:52:52.116Z,2.40
2023-04-26T06:55:21.479Z,2.80
2023-04-26T06:57:51.534Z,2.30
2023-04-26T07:00:20.973Z,2.50
2023-04-26T07:02:49.929Z,2.30
2023-04-26T07:05:19.317Z,3.00
2023-04-26T07:07:48.358Z,2.40
2023-04-26T07:10:17.664Z,2.50
2023-04-26T07:12:46.954Z,2.70
2023-04-26T07:15:16.402Z,2.60
2023-04-26T07:17:45.534Z,2.30
2023-04-26T07:20:20.421Z,2.50
2023-04-26T07:22:49.321Z,2.20
2023-04-26T07:25:18.982Z,2.60
2023-04-26T07:27:48.640Z,6.20
2023-04-26T07:30:17.481Z,94.40
2023-04-26T07:32:46.439Z,78.00
2023-04-26T07:35:16.918Z,43.50
2023-04-26T07:37:45.877Z,15.80
2023-04-26T07:40:15.535Z,4.10
2023-04-26T07:42:44.386Z,2.20
2023-04-26T07:45:13.701Z,3.20
2023-04-26T07:47:42.629Z,2.30
2023-04-26T07:50:12.989Z,14.10
2023-04-26T07:52:43.879Z,14.30
2023-04-26T07:55:13.352Z,21.70
2023-04-26T07:57:42.299Z,3.00
2023-04-26T08:00:12.642Z,7.40
2023-04-26T08:02:44.470Z,3.60
2023-04-26T08:05:19.837Z,9.00
2023-04-26T08:07:48.951Z,5.80
2023-04-26T08:10:18.116Z,1.90
2023-04-26T08:12:47.003Z,1.50
2023-04-26T08:15:15.907Z,1.50
2023-04-26T08:17:45.041Z,2.80
2023-04-26T08:20:14.766Z,1.50
2023-04-26T08:22:43.721Z,1.40
2023-04-26T08:25:12.916Z,1.30
2023-04-26T08:27:41.837Z,1.60
2023-04-26T08:30:11.478Z,1.50
2023-04-26T08:32:41.605Z,2.00
2023-04-26T08:35:10.816Z,2.20
2023-04-26T08:37:40.280Z,2.20
2023-04-26T08:40:12.685Z,2.10
2023-04-26T08:42:46.335Z,2.20
2023-04-26T08:45:16.772Z,1.90
2023-04-26T08:47:49.998Z,2.20
2023-04-26T08:50:24.292Z,3.50
2023-04-26T08:52:53.862Z,3.30
2023-04-26T08:55:23.929Z,2.80
2023-04-26T08:57:52.737Z,3.40
2023-04-26T09:00:22.868Z,3.30
2023-04-26T09:02:53.618Z,2.50
2023-04-26T09:05:27.602Z,2.90
2023-04-26T09:08:03.011Z,3.00
2023-04-26T09:10:33.005Z,3.40
2023-04-26T09:13:01.805Z,3.40
2023-04-26T09:15:30.739Z,3.40
2023-04-26T09:18:21.882Z,3.60
2023-04-26T09:21:09.632Z,3.50
2023-04-26T09:24:04.679Z,3.60
2023-04-26T09:26:34.893Z,3.40
2023-04-26T09:29:21.198Z,3.60
2023-04-26T09:31:51.390Z,3.30
2023-04-26T09:34:20.385Z,3.70
2023-04-26T09:36:54.197Z,3.30
2023-04-26T09:39:36.023Z,4.10
2023-04-26T09:42:05.655Z,3.80
2023-04-26T09:44:35.632Z,4.20
2023-04-26T09:47:07.477Z,3.70
2023-04-26T09:49:49.578Z,3.70
2023-04-26T09:52:19.824Z,4.30
2023-04-26T09:54:53.572Z,4.00
2023-04-26T09:57:23.944Z,4.20
2023-04-26T09:59:57.098Z,3.80
2023-04-26T10:02:28.839Z,3.00
2023-04-26T10:05:00.539Z,3.60
2023-04-26T10:07:31.507Z,4.00
2023-04-26T10:10:00.741Z,4.10
2023-04-26T10:12:30.146Z,4.30
2023-04-26T10:14:59.149Z,3.20
2023-04-26T10:17:28.207Z,3.20
2023-04-26T10:19:59.921Z,3.10
2023-04-26T10:22:34.186Z,2.50
2023-04-26T10:25:03.594Z,2.90
2023-04-26T10:27:44.473Z,3.00
2023-04-26T10:30:21.349Z,2.60
2023-04-26T10:32:53.605Z,2.90
2023-04-26T10:35:24.104Z,3.00
2023-04-26T10:38:01.984Z,2.70
2023-04-26T10:40:36.848Z,2.70
2023-04-26T10:43:15.207Z,2.30
2023-04-26T10:45:46.404Z,2.60
2023-04-26T10:48:31.570Z,2.40
2023-04-26T10:51:03.131Z,2.40
2023-04-26T10:53:33.853Z,2.30
2023-04-26T10:56:02.765Z,2.30
2023-04-26T10:59:28.469Z,2.20
2023-04-26T11:02:01.904Z,2.10
2023-04-26T11:04:53.095Z,1.90
2023-04-26T11:07:38.507Z,2.10
2023-04-26T11:10:23.776Z,2.50
2023-04-26T11:13:06.539Z,2.40
2023-04-26T11:15:36.948Z,2.50
2023-04-26T11:18:06.556Z,2.20
2023-04-26T11:20:35.568Z,1.70
2023-04-26T11:23:04.447Z,1.60
2023-04-26T11:25:33.294Z,1.70
2023-04-26T11:28:04.085Z,1.60
2023-04-26T11:30:33.908Z,1.50
2023-04-26T11:33:06.957Z,2.10
2023-04-26T11:35:40.916Z,1.80
2023-04-26T11:38:10.384Z,2.00
2023-04-26T11:40:39.231Z,1.60
2023-04-26T11:43:09.556Z,1.50
2023-04-26T11:45:39.088Z,1.80
2023-04-26T11:48:11.298Z,2.10
2023-04-26T11:50:44.187Z,1.10
2023-04-26T11:53:14.363Z,1.30
2023-04-26T11:55:43.143Z,1.20
2023-04-26T11:58:14.977Z,1.30
2023-04-26T12:01:02.894Z,1.30
2023-04-26T12:03:38.383Z,1.40
2023-04-26T12:06:07.587Z,1.30
2023-04-26T12:08:36.848Z,1.40
2023-04-26T12:11:05.726Z,1.10
2023-04-26T12:13:34.678Z,0.80
2023-04-26T12:16:22.406Z,1.10
2023-04-26T12:18:55.800Z,0.90
2023-04-26T12:21:25.619Z,0.90
2023-04-26T12:23:55.238Z,1.00
2023-04-26T12:26:47.289Z,0.90
2023-04-26T12:29:16.224Z,1.10
2023-04-26T12:31:45.191Z,1.10
2023-04-26T12:34:14.422Z,1.00
2023-04-26T12:36:46.008Z,1.10
2023-04-26T12:39:16.231Z,1.10
2023-04-26T12:41:47.172Z,1.00
2023-04-26T12:44:16.206Z,1.00
2023-04-26T12:46:45.244Z,1.50
2023-04-26T12:49:14.233Z,1.00
2023-04-26T12:51:43.127Z,1.00
2023-04-26T12:54:12.047Z,0.80
2023-04-26T12:56:44.254Z,0.80
2023-04-26T12:59:13.178Z,0.70
2023-04-26T13:01:42.187Z,0.70
2023-04-26T13:04:11.583Z,0.70
2023-04-26T13:06:40.837Z,0.60
2023-04-26T13:09:09.732Z,0.70
2023-04-26T13:11:38.533Z,0.80
2023-04-26T13:14:08.101Z,0.60
2023-04-26T13:16:36.945Z,1.00
2023-04-26T13:19:06.973Z,0.80
2023-04-26T13:21:35.839Z,0.90
2023-04-26T13:24:04.962Z,0.80
2023-04-26T13:26:33.920Z,0.80
2023-04-26T13:29:02.890Z,0.70
2023-04-26T13:31:32.739Z,0.70
2023-04-26T13:34:01.782Z,0.80
2023-04-26T13:36:30.725Z,0.80
2023-04-26T13:39:00.273Z,1.10
2023-04-26T13:41:33.918Z,0.70
2023-04-26T13:44:05.002Z,0.80
2023-04-26T13:46:33.849Z,0.80
2023-04-26T13:49:02.787Z,0.80
2023-04-26T13:51:33.328Z,0.70
2023-04-26T13:54:02.659Z,0.80
2023-04-26T13:56:31.470Z,0.90
2023-04-26T13:59:04.203Z,0.90
2023-04-26T14:01:36.275Z,1.30
2023-04-26T14:04:05.339Z,1.00
2023-04-26T14:06:34.837Z,1.00
2023-04-26T14:09:06.185Z,1.00
2023-04-26T14:11:35.116Z,0.90
2023-04-26T14:14:04.061Z,0.90
2023-04-26T14:16:32.950Z,0.90
2023-04-26T14:19:03.039Z,1.00
2023-04-26T14:21:32.200Z,1.40
2023-04-26T14:24:01.771Z,0.80
2023-04-26T14:26:31.454Z,0.60
2023-04-26T14:29:01.273Z,0.60
2023-04-26T14:31:30.995Z,0.70
2023-04-26T14:34:00.013Z,0.60
2023-04-26T14:36:28.839Z,0.70
2023-04-26T14:38:57.716Z,0.70
2023-04-26T14:41:26.675Z,0.60
2023-04-26T14:43:55.543Z,0.50
2023-04-26T14:46:24.418Z,0.60
2023-04-26T14:48:53.306Z,0.70
2023-04-26T14:51:22.033Z,0.60
2023-04-26T14:53:50.783Z,0.60
2023-04-26T14:56:19.593Z,0.60
2023-04-26T14:58:48.513Z,0.60
2023-04-26T15:01:17.830Z,0.60
2023-04-26T15:03:47.299Z,0.60
2023-04-26T15:06:16.305Z,0.70
2023-04-26T15:08:45.259Z,0.60
2023-04-26T15:11:14.240Z,0.70
2023-04-26T15:13:43.017Z,0.60
2023-04-26T15:16:11.912Z,0.60
2023-04-26T15:18:41.059Z,0.70
2023-04-26T15:21:09.841Z,0.70
2023-04-26T15:23:38.594Z,0.70
2023-04-26T15:26:07.346Z,0.60
2023-04-26T15:28:36.120Z,0.80
2023-04-26T15:31:06.618Z,0.70
2023-04-26T15:33:35.550Z,0.70
2023-04-26T15:36:04.912Z,0.70
2023-04-26T15:38:37.496Z,0.50
2023-04-26T15:41:07.324Z,0.80
2023-04-26T15:43:36.255Z,0.80
2023-04-26T15:46:05.229Z,0.70
2023-04-26T15:48:34.193Z,0.70
2023-04-26T15:51:05.925Z,0.70
2023-04-26T15:53:34.713Z,0.70
2023-04-26T15:56:03.639Z,0.70
2023-04-26T15:58:32.457Z,0.70
2023-04-26T16:01:01.945Z,0.80
2023-04-26T16:03:31.810Z,0.70
2023-04-26T16:06:01.225Z,0.80
2023-04-26T16:08:39.831Z,0.80
2023-04-26T16:11:09.403Z,0.80
2023-04-26T16:13:38.577Z,0.80
2023-04-26T16:16:09.557Z,0.80
2023-04-26T16:18:40.274Z,0.80
2023-04-26T16:21:10.300Z,0.80
2023-04-26T16:23:41.019Z,0.90
2023-04-26T16:26:10.027Z,0.70
2023-04-26T16:28:39.142Z,1.80
2023-04-26T16:31:08.108Z,0.80
2023-04-26T16:33:37.515Z,0.70
2023-04-26T16:36:07.014Z,0.70
2023-04-26T16:38:35.862Z,0.90
2023-04-26T16:41:04.883Z,0.80
2023-04-26T16:43:33.742Z,0.90
2023-04-26T16:46:09.552Z,0.80
2023-04-26T16:48:39.682Z,0.90
2023-04-26T16:51:08.691Z,0.70
2023-04-26T16:53:38.726Z,0.70
2023-04-26T16:56:07.933Z,0.70
2023-04-26T16:58:36.735Z,1.00
2023-04-26T17:01:05.701Z,0.80
2023-04-26T17:03:34.784Z,0.80
2023-04-26T17:06:04.699Z,0.80
2023-04-26T17:08:33.494Z,0.80
2023-04-26T17:11:02.326Z,0.80
2023-04-26T17:13:33.949Z,0.80
2023-04-26T17:16:02.791Z,0.70
2023-04-26T17:18:31.957Z,0.70
2023-04-26T17:21:02.746Z,0.60
2023-04-26T17:23:33.782Z,0.70
2023-04-26T17:26:03.146Z,0.80
2023-04-26T17:28:33.834Z,0.70
2023-04-26T17:31:02.766Z,0.80
2023-04-26T17:33:32.478Z,0.60
2023-04-26T17:36:02.358Z,0.70
2023-04-26T17:38:31.367Z,0.80
2023-04-26T17:41:00.504Z,0.80
2023-04-26T17:43:29.427Z,0.80
2023-04-26T17:45:58.445Z,0.80
2023-04-26T17:48:29.561Z,0.70
2023-04-26T17:50:58.737Z,0.60
2023-04-26T17:53:27.927Z,0.80
2023-04-26T17:55:56.817Z,0.80
2023-04-26T17:58:26.060Z,0.70
2023-04-26T18:00:54.837Z,0.60
2023-04-26T18:03:23.958Z,0.70
2023-04-26T18:05:53.220Z,0.70
2023-04-26T18:08:22.585Z,0.60
2023-04-26T18:10:54.247Z,0.70
2023-04-26T18:13:22.986Z,4.90
2023-04-26T18:15:51.796Z,0.70
2023-04-26T18:18:20.536Z,0.70
2023-04-26T18:20:49.411Z,0.70
2023-04-26T18:23:18.453Z,0.60
2023-04-26T18:25:47.665Z,4.70
2023-04-26T18:28:17.014Z,0.50
2023-04-26T18:30:46.026Z,1.00
2023-04-26T18:33:14.984Z,1.30
2023-04-26T18:35:43.852Z,0.80
2023-04-26T18:38:12.680Z,3.40
2023-04-26T18:40:45.941Z,0.80
2023-04-26T18:43:14.786Z,0.70
2023-04-26T18:45:43.673Z,0.70
2023-04-26T18:48:12.455Z,0.60
2023-04-26T18:50:41.353Z,1.00
2023-04-26T18:53:10.176Z,0.60
2023-04-26T18:55:39.006Z,0.60
2023-04-26T18:58:07.941Z,0.80
2023-04-26T19:00:37.552Z,0.70
2023-04-26T19:03:06.422Z,0.60
2023-04-26T19:05:35.285Z,1.00
2023-04-26T19:08:04.418Z,0.90
2023-04-26T19:10:33.250Z,0.70
2023-04-26T19:13:02.183Z,0.90
2023-04-26T19:15:31.134Z,1.10
2023-04-26T19:18:00.109Z,0.80
2023-04-26T19:20:29.138Z,0.80
2023-04-26T19:22:57.918Z,0.80
2023-04-26T19:25:27.883Z,0.70
2023-04-26T19:27:56.799Z,1.20
2023-04-26T19:30:25.692Z,2.50
2023-04-26T19:32:54.543Z,0.70
2023-04-26T19:35:23.822Z,0.70
2023-04-26T19:37:52.670Z,0.70
2023-04-26T19:40:21.954Z,0.60
2023-04-26T19:42:50.752Z,0.60
2023-04-26T19:45:21.193Z,0.60
2023-04-26T19:47:50.034Z,0.60
2023-04-26T19:50:19.382Z,0.60
2023-04-26T19:52:48.202Z,0.60
2023-04-26T19:55:16.984Z,0.70
2023-04-26T19:57:45.903Z,0.60
2023-04-26T20:00:16.538Z,0.50
2023-04-26T20:02:45.419Z,0.60
2023-04-26T20:05:14.600Z,0.60
2023-04-26T20:07:43.368Z,0.70
2023-04-26T20:10:12.366Z,0.60
2023-04-26T20:12:42.394Z,0.70
2023-04-26T20:15:12.574Z,0.70
2023-04-26T20:17:45.009Z,0.60
2023-04-26T20:20:14.033Z,0.60
2023-04-26T20:22:42.868Z,0.60
2023-04-26T20:25:11.747Z,0.80
2023-04-26T20:27:40.478Z,0.70
2023-04-26T20:30:10.168Z,0.60
2023-04-26T20:32:39.047Z,0.70
2023-04-26T20:35:08.970Z,0.70
2023-04-26T20:37:37.861Z,0.60
2023-04-26T20:40:07.633Z,0.50
2023-04-26T20:42:36.841Z,0.60
2023-04-26T20:45:06.501Z,0.60
2023-04-26T20:47:35.421Z,0.60
2023-04-26T20:50:05.968Z,0.80
2023-04-26T20:52:34.790Z,1.00
2023-04-26T20:55:03.958Z,0.90
2023-04-26T20:57:33.175Z,1.20
2023-04-26T21:00:02.089Z,1.10
2023-04-26T21:02:31.034Z,1.20
2023-04-26T21:05:00.231Z,1.40
2023-04-26T21:07:29.069Z,1.80
2023-04-26T21:09:58.252Z,1.70
2023-04-26T21:12:27.197Z,1.90
2023-04-26T21:14:56.272Z,2.10
2023-04-26T21:17:25.174Z,2.10
2023-04-26T21:19:54.078Z,2.10
2023-04-26T21:22:23.155Z,2.50
2023-04-26T21:24:53.076Z,2.30
2023-04-26T21:27:22.524Z,2.30
2023-04-26T21:29:51.394Z,2.40
2023-04-26T21:32:20.274Z,2.40
2023-04-26T21:34:49.039Z,2.50
2023-04-26T21:37:17.989Z,2.20
2023-04-26T21:39:46.998Z,2.70
2023-04-26T21:42:16.192Z,2.10
2023-04-26T21:44:45.257Z,2.50
2023-04-26T21:47:14.198Z,2.30
2023-04-26T21:49:43.155Z,2.60
2023-04-26T21:52:14.899Z,1.80
2023-04-26T21:54:43.881Z,2.60
2023-04-26T21:57:12.795Z,2.60
2023-04-26T21:59:44.159Z,3.00
2023-04-26T22:02:13.257Z,2.70
2023-04-26T22:04:45.448Z,2.50
2023-04-26T22:07:14.385Z,3.00
2023-04-26T22:09:43.290Z,2.80
2023-04-26T22:12:12.145Z,2.90
2023-04-26T22:14:41.053Z,3.20
2023-04-26T22:17:09.957Z,2.60
2023-04-26T22:19:38.936Z,2.20
2023-04-26T22:22:07.905Z,2.80
2023-04-26T22:24:37.228Z,3.20
2023-04-26T22:27:06.102Z,3.20
2023-04-26T22:29:35.006Z,3.50
2023-04-26T22:32:03.866Z,2.90
2023-04-26T22:34:32.795Z,2.40
2023-04-26T22:37:13.036Z,3.10
2023-04-26T22:39:53.148Z,3.30
2023-04-26T22:42:22.048Z,3.10
2023-04-26T22:44:51.422Z,3.40
2023-04-26T22:47:23.354Z,3.70
2023-04-26T22:49:52.170Z,3.50
2023-04-26T22:52:30.872Z,3.70
2023-04-26T22:55:01.492Z,3.90
2023-04-26T22:57:31.727Z,3.80
2023-04-26T23:00:00.677Z,4.10
2023-04-26T23:02:29.819Z,3.80
2023-04-26T23:04:58.889Z,3.40
2023-04-26T23:07:27.858Z,3.60
2023-04-26T23:09:56.931Z,3.40
2023-04-26T23:12:25.902Z,3.60
2023-04-26T23:15:00.610Z,4.50
2023-04-26T23:17:34.741Z,4.10
2023-04-26T23:20:13.795Z,4.30
2023-04-26T23:22:44.170Z,4.40
2023-04-26T23:25:13.006Z,3.60
2023-04-26T23:27:41.892Z,4.40
2023-04-26T23:30:19.918Z,4.50
2023-04-26T23:32:48.960Z,4.50
2023-04-26T23:35:18.019Z,5.00
2023-04-26T23:37:46.966Z,4.60
2023-04-26T23:40:15.884Z,4.90
2023-04-26T23:42:44.790Z,5.60
2023-04-26T23:45:13.724Z,5.50
2023-04-26T23:47:42.597Z,4.80
2023-04-26T23:50:11.592Z,4.60
2023-04-26T23:52:40.424Z,4.20
2023-04-26T23:55:10.040Z,5.00
2023-04-26T23:57:38.919Z,4.60
